Time;durP1;ratioP1;P1;durP2;ratioP2;P2;SDS_P1;SDS_P2;PMS_P1;PMS_P2;Temp;Humidity;BMP_temperature;BMP_pressure;BME280_temperature;BME280_humidity;BME280_pressure;Samples;Min_cycle;Max_cycle;Signal;HPM_P1;HPM_P2
2022/07/28 00:01:27;;;;;;;4.55;0.70;;;;;;;17.49;52.65;98651.06;4172603;28;20265;-52
2022/07/28 00:03:29;;;;;;;1.70;0.80;;;;;;;17.46;52.72;98651.66;4172100;28;20212;-52
2022/07/28 00:05:31;;;;;;;1.17;0.43;;;;;;;17.49;52.64;98651.06;4171585;28;20246;-52
2022/07/28 00:07:34;;;;;;;0.43;0.40;;;;;;;17.43;52.94;98646.69;4177176;28;20258;-52
2022/07/28 00:09:36;;;;;;;0.80;0.68;;;;;;;17.46;52.97;98651.66;4170091;28;20752;-52
2022/07/28 00:11:38;;;;;;;1.05;0.50;;;;;;;17.36;52.92;98648.91;4191368;28;20223;-52
2022/07/28 00:13:55;;;;;;;2.25;0.47;;;;;;;17.33;52.90;98646.75;4172433;28;20295;-52
2022/07/28 00:15:57;;;;;;;0.73;0.60;;;;;;;17.30;53.04;98652.84;4174129;28;20277;-52
2022/07/28 00:17:59;;;;;;;3.13;0.60;;;;;;;17.29;53.29;98649.28;4176352;28;20212;-52
2022/07/28 00:20:01;;;;;;;5.38;0.73;;;;;;;17.25;53.27;98650.97;4170498;28;20224;-53
2022/07/28 00:22:03;;;;;;;2.72;0.60;;;;;;;17.20;53.56;98653.75;4174567;28;20256;-53
2022/07/28 00:24:05;;;;;;;0.73;0.68;;;;;;;17.18;53.42;98644.13;4170078;28;20246;-52
2022/07/28 00:26:08;;;;;;;1.95;0.70;;;;;;;17.10;53.77;98653.00;4169301;28;20208;-52
2022/07/28 00:28:09;;;;;;;1.20;0.50;;;;;;;17.11;53.52;98649.16;4187548;28;20214;-52
2022/07/28 00:30:11;;;;;;;1.10;0.70;;;;;;;17.10;53.73;98647.47;4187057;28;20642;-52
2022/07/28 00:32:13;;;;;;;1.00;0.60;;;;;;;17.10;53.64;98647.47;4177483;28;20556;-52
2022/07/28 00:34:15;;;;;;;1.85;0.70;;;;;;;17.06;53.74;98640.91;4177373;28;20204;-52
2022/07/28 00:36:17;;;;;;;1.23;0.50;;;;;;;17.02;53.63;98645.34;4173631;28;20204;-52
2022/07/28 00:38:25;;;;;;;1.48;0.77;;;;;;;16.95;53.80;98642.06;4156586;28;20201;-52
2022/07/28 00:42:49;;;;;;;0.63;0.57;;;;;;;16.91;54.00;98635.50;4172818;28;20571;-53
2022/07/28 00:44:52;;;;;;;0.70;0.50;;;;;;;16.90;54.13;98641.31;4170857;28;20219;-53
2022/07/28 00:46:54;;;;;;;1.52;0.70;;;;;;;16.92;54.10;98640.72;4176502;28;20211;-52
2022/07/28 00:48:56;;;;;;;1.83;0.70;;;;;;;16.87;54.34;98639.94;4175833;28;20204;-53
2022/07/28 00:50:58;;;;;;;1.20;0.70;;;;;;;16.81;54.19;98635.53;4174782;28;20655;-52
2022/07/28 00:53:00;;;;;;;0.95;0.60;;;;;;;16.81;54.24;98631.94;4176648;28;20200;-52
2022/07/28 00:55:04;;;;;;;0.70;0.60;;;;;;;16.79;54.24;98635.03;4178439;28;20218;-53
2022/07/28 00:57:05;;;;;;;1.17;0.60;;;;;;;16.75;54.29;98631.16;4176369;28;20204;-52
2022/07/28 00:59:08;;;;;;;2.15;0.70;;;;;;;16.75;54.23;98624.84;4160598;28;20262;-53
2022/07/28 01:01:14;;;;;;;0.73;0.60;;;;;;;16.74;54.13;98625.91;4171458;28;20224;-53
2022/07/28 01:03:17;;;;;;;0.77;0.65;;;;;;;16.74;54.27;98621.22;4188712;28;20208;-53
2022/07/28 01:05:19;;;;;;;1.27;0.68;;;;;;;16.60;54.65;98613.84;4175595;28;20252;-53
2022/07/28 01:08:06;;;;;;;0.63;0.63;;;;;;;16.59;54.32;98613.03;4191258;28;20678;-53
2022/07/28 01:10:13;;;;;;;2.10;0.75;;;;;;;16.60;54.37;98609.16;4174621;28;20266;-53
2022/07/28 01:12:37;;;;;;;0.93;0.50;;;;;;;16.56;54.60;98613.59;4174316;28;20243;-52
2022/07/28 01:14:48;;;;;;;2.25;0.60;;;;;;;16.50;54.40;98614.75;4172275;28;20249;-53
2022/07/28 01:16:59;;;;;;;1.25;0.70;;;;;;;16.45;54.57;98611.19;4190811;28;20207;-53
2022/07/28 01:19:16;;;;;;;1.35;0.80;;;;;;;16.42;54.66;98607.06;4174108;28;20207;-53
2022/07/28 01:21:25;;;;;;;3.15;0.88;;;;;;;16.41;54.67;98610.94;4179110;28;20219;-53
2022/07/28 01:23:30;;;;;;;3.17;0.70;;;;;;;16.39;54.74;98607.66;4181229;28;20204;-54
2022/07/28 01:25:44;;;;;;;1.65;1.05;;;;;;;16.35;54.97;98603.75;4193393;28;20207;-53
2022/07/28 01:28:04;;;;;;;1.20;0.70;;;;;;;16.33;55.05;98606.00;4175777;28;20250;-53
2022/07/28 01:30:28;;;;;;;0.70;0.70;;;;;;;16.28;55.04;98594.97;4175814;28;20196;-53
2022/07/28 01:32:35;;;;;;;4.72;0.80;;;;;;;16.23;55.08;98602.47;4189204;28;20208;-53
2022/07/28 01:34:48;;;;;;;1.15;0.70;;;;;;;16.22;54.87;98598.84;4189933;28;20203;-53
2022/07/28 01:36:57;;;;;;;1.80;0.77;;;;;;;16.24;54.59;98598.59;4175282;28;20696;-52
2022/07/28 01:38:59;;;;;;;1.48;0.68;;;;;;;16.20;54.65;98598.31;4173121;28;20215;-53
2022/07/28 01:41:03;;;;;;;1.55;1.05;;;;;;;16.25;54.74;98600.22;4171824;28;20228;-53
2022/07/28 01:43:07;;;;;;;0.60;0.50;;;;;;;16.24;54.41;98588.34;4188664;28;20223;-53
2022/07/28 01:45:13;;;;;;;0.88;0.60;;;;;;;16.15;54.57;98595.59;4190622;28;20212;-52
2022/07/28 01:47:15;;;;;;;0.98;0.60;;;;;;;16.18;54.46;98592.28;4179726;28;20199;-52
2022/07/28 01:49:18;;;;;;;0.80;0.63;;;;;;;16.16;54.67;98588.13;4157834;28;20299;-53
2022/07/28 01:51:21;;;;;;;2.85;0.85;;;;;;;16.21;54.67;98583.41;4180728;28;20227;-52
2022/07/28 01:53:24;;;;;;;1.40;0.80;;;;;;;16.19;54.85;98585.63;4171532;28;20262;-52
2022/07/28 01:55:27;;;;;;;0.93;0.50;;;;;;;16.21;54.85;98577.88;4180203;28;20262;-52
2022/07/28 01:57:32;;;;;;;1.52;0.60;;;;;;;16.22;54.93;98578.72;4180511;28;20666;-53
2022/07/28 01:59:35;;;;;;;1.45;0.88;;;;;;;16.19;54.99;98585.63;4174807;28;20294;-53
2022/07/28 02:01:41;;;;;;;3.22;1.10;;;;;;;16.28;55.08;98586.69;4176602;28;20246;-53
2022/07/28 02:03:43;;;;;;;1.60;0.90;;;;;;;16.20;55.05;98583.69;4172737;28;20207;-53
2022/07/28 02:05:49;;;;;;;1.58;0.90;;;;;;;16.15;55.20;98579.00;4175099;28;20204;-53
2022/07/28 02:07:52;;;;;;;0.68;0.68;;;;;;;16.16;55.30;98580.66;4179477;28;20376;-53
2022/07/28 02:09:56;;;;;;;0.80;0.60;;;;;;;16.20;55.47;98576.25;4178894;28;20567;-53
2022/07/28 02:11:58;;;;;;;0.90;0.65;;;;;;;16.13;55.49;98575.72;4173988;28;20221;-53
2022/07/28 02:14:00;;;;;;;2.13;0.85;;;;;;;16.10;55.53;98576.28;4175928;28;20201;-52
2022/07/28 02:16:04;;;;;;;2.50;0.80;;;;;;;16.08;55.72;98566.63;4176140;28;20206;-53
2022/07/28 02:18:09;;;;;;;0.85;0.60;;;;;;;16.05;55.95;98568.03;4188804;28;20203;-53
2022/07/28 02:20:12;;;;;;;0.90;0.50;;;;;;;16.05;55.67;98562.53;4173964;28;20212;-53
2022/07/28 02:22:15;;;;;;;2.15;0.80;;;;;;;16.04;55.66;98558.06;4188770;28;20701;-53
2022/07/28 02:24:19;;;;;;;0.52;0.52;;;;;;;16.06;55.95;98557.81;4173983;28;20204;-53
2022/07/28 02:26:25;;;;;;;1.02;0.60;;;;;;;15.97;55.98;98563.09;4175803;28;21145;-53
2022/07/28 02:28:27;;;;;;;3.95;1.00;;;;;;;15.97;56.04;98554.81;4190507;28;20810;-53
2022/07/28 02:30:35;;;;;;;3.38;0.82;;;;;;;15.94;55.90;98555.38;4180278;28;20208;-53
2022/07/28 02:32:41;;;;;;;2.30;0.85;;;;;;;15.89;56.30;98558.16;4171656;28;20569;-53
2022/07/28 02:34:46;;;;;;;1.40;0.70;;;;;;;15.88;56.17;98556.53;4174585;28;20231;-53
2022/07/28 02:37:00;;;;;;;1.80;0.90;;;;;;;15.90;56.07;98556.25;4174636;28;20247;-53
2022/07/28 02:42:09;;;;;;;1.20;0.63;;;;;;;15.86;56.21;98550.47;4173809;28;20247;-53
2022/07/28 02:44:16;;;;;;;2.70;1.17;;;;;;;15.84;56.21;98547.13;4191495;28;20203;-52
2022/07/28 02:46:23;;;;;;;2.78;0.70;;;;;;;15.84;56.20;98549.91;4188579;28;20238;-53
2022/07/28 02:48:27;;;;;;;1.38;0.55;;;;;;;15.84;56.20;98543.56;4174933;28;20243;-53
2022/07/28 02:50:29;;;;;;;1.45;0.90;;;;;;;15.83;56.33;98539.97;4173931;28;20204;-53
2022/07/28 02:52:31;;;;;;;3.60;0.52;;;;;;;15.79;56.77;98547.19;4174273;28;20204;-53
2022/07/28 02:54:34;;;;;;;2.95;0.90;;;;;;;15.78;56.92;98548.28;4176045;28;20620;-53
2022/07/28 02:56:36;;;;;;;2.25;1.05;;;;;;;15.70;57.55;98542.53;4174602;28;20675;-54
2022/07/28 02:58:38;;;;;;;1.70;0.65;;;;;;;15.64;57.87;98549.97;4172681;28;20207;-53
2022/07/28 03:00:40;;;;;;;1.08;1.02;;;;;;;15.57;57.91;98543.94;4173086;28;20240;-53
2022/07/28 03:02:45;;;;;;;1.23;0.50;;;;;;;15.57;57.78;98548.66;4178675;28;20725;-53
2022/07/28 03:04:57;;;;;;;0.70;0.70;;;;;;;15.55;57.71;98543.41;4158605;28;20234;-53
2022/07/28 03:06:59;;;;;;;1.67;0.70;;;;;;;15.53;57.56;98542.03;4174098;28;20680;-54
2022/07/28 03:09:01;;;;;;;1.73;0.80;;;;;;;15.52;57.62;98552.25;4176101;28;20271;-53
2022/07/28 03:11:12;;;;;;;0.73;0.73;;;;;;;15.45;57.87;98543.47;4176786;28;20693;-53
2022/07/28 03:13:17;;;;;;;0.70;0.70;;;;;;;15.39;57.82;98539.06;4172792;28;20207;-52
2022/07/28 03:15:19;;;;;;;1.08;0.80;;;;;;;15.39;57.82;98541.81;4173667;28;20196;-53
2022/07/28 03:17:21;;;;;;;1.92;0.90;;;;;;;15.34;58.13;98543.75;4172575;28;20197;-53
2022/07/28 03:19:23;;;;;;;3.90;0.90;;;;;;;15.34;57.97;98550.09;4172202;28;20215;-53
2022/07/28 03:21:24;;;;;;;2.40;0.80;;;;;;;15.33;58.24;98548.44;4173832;28;20251;-52
2022/07/28 03:23:33;;;;;;;1.02;0.70;;;;;;;15.28;58.48;98545.66;4191051;28;20604;-52
2022/07/28 03:25:38;;;;;;;0.90;0.73;;;;;;;15.24;58.67;98549.25;4173076;28;20203;-52
2022/07/28 03:27:43;;;;;;;5.82;0.80;;;;;;;15.25;58.31;98548.16;4172987;28;20279;-52
2022/07/28 03:29:52;;;;;;;1.83;0.77;;;;;;;15.26;58.24;98547.88;4186179;28;20296;-52
2022/07/28 03:31:55;;;;;;;1.00;0.82;;;;;;;15.26;58.40;98547.88;4174462;28;20231;-52
2022/07/28 03:33:57;;;;;;;1.35;0.68;;;;;;;15.23;58.44;98542.91;4178883;28;20713;-52
2022/07/28 03:36:02;;;;;;;0.95;0.60;;;;;;;15.23;58.42;98548.41;4163230;28;21144;-53
2022/07/28 03:38:35;;;;;;;0.80;0.80;;;;;;;15.24;58.34;98544.56;4173275;28;20235;-52
2022/07/28 03:40:37;;;;;;;2.40;0.80;;;;;;;15.24;58.28;98538.22;4174713;28;20624;-53
2022/07/28 03:42:42;;;;;;;0.82;0.77;;;;;;;15.23;58.13;98548.41;4176370;28;20277;-52
2022/07/28 03:44:47;;;;;;;3.35;0.90;;;;;;;15.20;58.37;98543.47;4188566;28;20685;-53
2022/07/28 03:46:48;;;;;;;0.80;0.60;;;;;;;15.21;58.24;98544.28;4190327;28;20678;-54
2022/07/28 03:48:50;;;;;;;1.48;0.77;;;;;;;15.22;58.22;98549.53;4174620;28;20215;-53
2022/07/28 03:50:52;;;;;;;0.82;0.80;;;;;;;15.18;58.37;98545.69;4175788;28;20734;-52
2022/07/28 03:52:55;;;;;;;2.15;0.90;;;;;;;15.14;58.67;98538.25;4175997;28;20199;-53
2022/07/28 03:54:56;;;;;;;0.80;0.80;;;;;;;15.14;58.39;98536.31;4161599;28;20262;-53
2022/07/28 03:56:58;;;;;;;0.77;0.77;;;;;;;15.14;58.72;98544.59;4171751;28;20236;-53
2022/07/28 03:58:59;;;;;;;1.92;0.70;;;;;;;15.17;58.53;98541.25;4166442;28;20310;-53
2022/07/28 04:01:01;;;;;;;2.30;0.80;;;;;;;15.17;58.55;98538.50;4171898;28;21004;-53
2022/07/28 04:03:03;;;;;;;1.05;0.60;;;;;;;15.20;58.64;98542.63;4174726;28;20223;-53
2022/07/28 04:05:24;;;;;;;0.75;0.70;;;;;;;15.22;58.11;98535.75;4173970;28;20228;-53
2022/07/28 04:07:26;;;;;;;1.30;0.85;;;;;;;15.21;58.10;98538.78;4178348;28;20246;-53
2022/07/28 04:09:28;;;;;;;5.00;0.90;;;;;;;15.20;58.25;98545.41;4174019;28;20212;-53
2022/07/28 04:11:29;;;;;;;1.38;1.10;;;;;;;15.31;58.07;98545.09;4175673;28;20259;-53
2022/07/28 04:13:31;;;;;;;1.00;0.70;;;;;;;15.24;57.98;98543.75;4174355;28;20411;-52
2022/07/28 04:15:33;;;;;;;1.15;0.82;;;;;;;15.24;57.96;98539.03;4188957;28;20203;-53
2022/07/28 04:17:36;;;;;;;1.98;0.80;;;;;;;15.26;57.94;98536.84;4178187;28;20204;-53
2022/07/28 04:19:38;;;;;;;2.97;0.80;;;;;;;15.24;57.96;98530.78;4172787;28;20200;-52
2022/07/28 04:21:40;;;;;;;2.45;1.00;;;;;;;15.33;57.91;98542.94;4175223;28;20275;-53
2022/07/28 04:23:42;;;;;;;2.75;1.08;;;;;;;15.32;57.79;98535.78;4172818;28;20634;-53
2022/07/28 04:25:43;;;;;;;1.00;0.80;;;;;;;15.32;57.71;98523.91;4178227;28;20227;-52
2022/07/28 04:27:45;;;;;;;1.75;0.90;;;;;;;15.31;57.75;98533.25;4178033;28;20278;-53
2022/07/28 04:29:47;;;;;;;1.63;0.85;;;;;;;15.28;57.62;98518.09;4173572;28;20211;-53
2022/07/28 04:31:48;;;;;;;4.80;0.70;;;;;;;15.36;57.98;98531.31;4173017;28;20691;-53
2022/07/28 04:33:50;;;;;;;1.55;0.80;;;;;;;15.26;58.10;98534.09;4172102;28;20196;-53
2022/07/28 04:35:52;;;;;;;2.63;0.85;;;;;;;15.24;58.21;98530.78;4172717;28;20205;-53
2022/07/28 04:37:57;;;;;;;6.65;0.70;;;;;;;15.22;58.14;98533.00;4177313;28;20387;-53
2022/07/28 04:39:59;;;;;;;1.92;0.98;;;;;;;15.23;58.32;98534.63;4172980;28;20223;-53
2022/07/28 04:42:01;;;;;;;2.25;0.70;;;;;;;15.27;58.23;98526.63;4188208;28;21623;-53
2022/07/28 04:44:03;;;;;;;2.78;1.17;;;;;;;15.29;57.94;98525.25;4178034;28;20290;-53
2022/07/28 04:46:05;;;;;;;1.15;0.90;;;;;;;15.28;58.12;98537.41;4173813;28;20223;-53
2022/07/28 04:48:07;;;;;;;1.45;0.68;;;;;;;15.36;57.83;98517.53;4175177;28;20282;-54
2022/07/28 04:50:10;;;;;;;1.85;0.90;;;;;;;15.41;57.90;98523.06;4188379;28;20218;-53
2022/07/28 04:52:12;;;;;;;3.33;1.10;;;;;;;15.43;57.82;98529.09;4173017;28;20406;-53
2022/07/28 04:54:15;;;;;;;1.17;0.85;;;;;;;15.48;57.57;98529.09;4171348;28;20200;-53
2022/07/28 04:56:17;;;;;;;3.63;1.00;;;;;;;15.49;57.79;98536.25;4170368;28;20217;-53
2022/07/28 04:58:19;;;;;;;0.95;0.80;;;;;;;15.52;57.90;98534.88;4162511;28;20227;-52
2022/07/28 05:00:23;;;;;;;1.33;0.82;;;;;;;15.57;57.67;98535.66;4173763;28;20208;-51
2022/07/28 05:02:28;;;;;;;1.77;0.80;;;;;;;15.57;57.92;98530.16;4172467;28;20249;-53
2022/07/28 05:04:33;;;;;;;3.22;0.95;;;;;;;15.58;57.90;98536.50;4158060;28;20238;-52
2022/07/28 05:06:35;;;;;;;2.00;0.80;;;;;;;15.59;58.11;98533.47;4186361;28;20270;-52
2022/07/28 05:08:37;;;;;;;1.67;1.00;;;;;;;15.64;57.62;98522.41;4190515;28;21094;-52
2022/07/28 05:10:39;;;;;;;0.85;0.60;;;;;;;15.70;57.44;98526.78;4156820;28;20225;-52
2022/07/28 05:12:41;;;;;;;3.15;1.13;;;;;;;15.74;57.00;98538.09;4160497;28;20652;-52
2022/07/28 05:14:43;;;;;;;1.23;0.90;;;;;;;15.72;57.16;98530.13;4168293;28;20212;-53
2022/07/28 05:16:45;;;;;;;0.80;0.80;;;;;;;15.63;57.19;98540.06;4177927;28;20234;-53
2022/07/28 05:18:47;;;;;;;3.30;0.90;;;;;;;15.71;56.95;98539.47;4188074;28;20208;-53
2022/07/28 05:20:49;;;;;;;0.75;0.65;;;;;;;15.65;57.26;98535.09;4175068;28;20327;-53
2022/07/28 05:22:52;;;;;;;1.73;0.80;;;;;;;15.74;57.08;98541.69;4168713;28;20806;-53
2022/07/28 05:24:54;;;;;;;1.90;0.90;;;;;;;15.67;57.19;98543.91;4162720;28;20248;-54
2022/07/28 05:26:56;;;;;;;3.15;1.15;;;;;;;15.77;56.79;98541.09;4169695;28;20197;-53
2022/07/28 05:28:57;;;;;;;6.18;0.80;;;;;;;15.84;57.48;98538.84;4169675;28;20576;-53
2022/07/28 05:30:59;;;;;;;1.25;0.82;;;;;;;15.86;57.40;98536.66;4168318;28;20768;-53
2022/07/28 05:33:01;;;;;;;1.48;1.00;;;;;;;15.93;57.33;98541.84;4169097;28;20208;-53
2022/07/28 05:35:04;;;;;;;1.00;0.70;;;;;;;15.99;57.48;98538.81;4182272;28;20207;-52
2022/07/28 05:37:06;;;;;;;2.15;0.90;;;;;;;15.99;57.53;98546.25;4175553;28;20556;-52
2022/07/28 05:39:08;;;;;;;4.55;0.95;;;;;;;16.08;57.17;98544.53;4176189;28;20346;-52
2022/07/28 05:41:10;;;;;;;1.52;0.90;;;;;;;16.12;57.19;98543.72;4178829;28;20631;-52
2022/07/28 05:43:11;;;;;;;1.67;0.80;;;;;;;16.19;56.88;98541.44;4170029;28;20228;-54
2022/07/28 05:45:14;;;;;;;2.47;0.90;;;;;;;16.26;57.13;98547.47;4164223;28;20201;-53
2022/07/28 05:47:22;;;;;;;3.35;1.02;;;;;;;16.32;57.10;98540.81;4162704;28;20204;-54
2022/07/28 05:49:24;;;;;;;2.22;0.90;;;;;;;16.36;57.05;98544.63;4171574;28;20204;-53
2022/07/28 05:51:26;;;;;;;3.53;1.05;;;;;;;16.44;56.81;98538.53;4175134;28;20235;-54
2022/07/28 05:53:28;;;;;;;1.67;0.60;;;;;;;16.45;56.49;98545.72;4188394;28;20200;-52
2022/07/28 05:55:30;;;;;;;4.70;1.00;;;;;;;16.60;56.45;98548.38;4190509;28;20594;-53
2022/07/28 05:57:31;;;;;;;1.88;0.82;;;;;;;16.58;56.85;98541.47;4188997;28;20203;-53
2022/07/28 05:59:33;;;;;;;1.90;1.10;;;;;;;16.61;57.06;98544.50;4177417;28;21122;-54
2022/07/28 06:01:36;;;;;;;1.55;0.90;;;;;;;16.63;56.18;98550.56;4176216;28;20235;-52
2022/07/28 06:03:38;;;;;;;5.00;0.80;;;;;;;16.76;56.78;98547.13;4187785;28;20823;-53
2022/07/28 06:05:43;;;;;;;1.23;0.70;;;;;;;16.81;57.34;98544.34;4173016;28;20295;-54
2022/07/28 06:08:05;;;;;;;9.45;0.98;;;;;;;16.96;57.48;98544.19;4174125;28;20200;-53
2022/07/28 06:10:07;;;;;;;11.38;1.27;;;;;;;17.06;57.43;98546.88;4162884;28;20297;-54
2022/07/28 06:12:09;;;;;;;18.20;1.77;;;;;;;17.10;57.16;98543.22;4174728;28;20258;-53
2022/07/28 06:14:10;;;;;;;8.52;1.27;;;;;;;17.14;57.27;98543.47;4163413;28;20254;-54
2022/07/28 06:16:17;;;;;;;3.60;0.80;;;;;;;17.12;55.94;98545.72;4174017;28;20212;-52
2022/07/28 06:18:22;;;;;;;3.95;1.00;;;;;;;17.02;55.14;98545.78;4171552;28;20208;-52
2022/07/28 06:20:26;;;;;;;6.22;1.13;;;;;;;17.07;55.10;98543.00;4180000;28;20204;-53
2022/07/28 06:22:49;;;;;;;1.30;0.95;;;;;;;17.02;55.07;98540.25;4175603;28;20629;-52
2022/07/28 06:24:50;;;;;;;1.83;0.93;;;;;;;17.20;55.67;98542.31;4174193;28;20641;-53
2022/07/28 06:26:52;;;;;;;2.08;0.85;;;;;;;17.15;54.74;98545.13;4176608;28;20636;-52
2022/07/28 06:28:54;;;;;;;2.55;1.00;;;;;;;17.02;54.19;98546.63;4172750;28;20269;-52
2022/07/28 06:30:56;;;;;;;2.88;0.90;;;;;;;17.17;54.50;98553.94;4180122;28;20223;-52
2022/07/28 06:32:58;;;;;;;3.50;1.13;;;;;;;17.27;54.98;98542.78;4172864;28;20678;-52
2022/07/28 06:35:04;;;;;;;2.05;1.00;;;;;;;17.42;55.01;98554.56;4185529;28;20208;-52
2022/07/28 06:37:07;;;;;;;4.10;1.05;;;;;;;17.25;54.06;98548.59;4188578;28;20202;-52
2022/07/28 06:39:09;;;;;;;20.25;2.70;;;;;;;17.34;53.63;98548.81;4172257;28;20225;-53
2022/07/28 06:41:11;;;;;;;2.90;0.77;;;;;;;17.49;54.26;98549.50;4178838;28;20230;-52
2022/07/28 06:43:13;;;;;;;2.78;1.02;;;;;;;17.62;54.12;98545.19;4164431;28;20315;-52
2022/07/28 06:45:16;;;;;;;3.40;0.90;;;;;;;17.68;54.07;98549.56;4172862;28;20205;-53
2022/07/28 06:47:22;;;;;;;1.48;0.80;;;;;;;17.84;54.11;98542.72;4177012;28;20763;-53
2022/07/28 06:49:27;;;;;;;1.75;0.80;;;;;;;17.86;53.76;98543.25;4176588;28;20208;-55
2022/07/28 06:51:29;;;;;;;8.82;0.90;;;;;;;17.92;52.89;98544.84;4179020;28;20235;-52
2022/07/28 06:53:31;;;;;;;2.15;0.90;;;;;;;17.90;53.16;98558.97;4174087;28;20608;-52
2022/07/28 06:55:34;;;;;;;2.47;1.15;;;;;;;18.07;53.63;98552.94;4192255;28;20282;-51
2022/07/28 06:57:37;;;;;;;2.45;0.80;;;;;;;18.19;53.30;98550.56;4174141;28;20212;-51
2022/07/28 06:59:39;;;;;;;6.32;0.90;;;;;;;18.23;53.21;98543.28;4172783;28;20216;-52
2022/07/28 07:01:40;;;;;;;2.78;1.23;;;;;;;18.28;53.52;98543.22;4174536;28;20228;-52
2022/07/28 07:03:43;;;;;;;2.50;0.95;;;;;;;18.40;52.67;98546.41;4164121;28;20228;-52
2022/07/28 07:05:45;;;;;;;4.60;0.70;;;;;;;18.46;52.81;98551.56;4188632;28;20219;-52
2022/07/28 07:07:53;;;;;;;1.30;0.70;;;;;;;18.53;53.07;98551.19;4178152;28;20200;-53
2022/07/28 07:09:54;;;;;;;5.40;0.60;;;;;;;18.44;52.03;98548.28;4178163;28;20207;-52
2022/07/28 07:11:57;;;;;;;0.98;0.70;;;;;;;18.51;51.86;98545.13;4175959;28;20642;-52
2022/07/28 07:14:01;;;;;;;1.35;0.75;;;;;;;18.39;51.67;98544.75;4178871;28;20203;-52
2022/07/28 07:16:03;;;;;;;2.90;0.60;;;;;;;18.25;52.12;98529.97;4174781;28;20211;-52
2022/07/28 07:18:05;;;;;;;1.10;0.52;;;;;;;18.35;51.83;98538.16;4173641;28;20204;-53
2022/07/28 07:20:08;;;;;;;1.45;0.50;;;;;;;18.37;52.27;98541.44;4188900;28;20204;-52
2022/07/28 07:22:13;;;;;;;3.42;1.23;;;;;;;18.57;52.36;98530.09;4179312;28;20228;-52
2022/07/28 07:24:15;;;;;;;1.42;0.95;;;;;;;18.46;52.45;98534.13;4172981;28;20685;-52
2022/07/28 07:26:22;;;;;;;6.13;0.70;;;;;;;18.65;51.86;98532.97;4172778;28;20219;-52
2022/07/28 07:28:24;;;;;;;1.58;0.50;;;;;;;18.72;51.56;98529.81;4175098;28;20219;-52
2022/07/28 07:30:25;;;;;;;1.98;1.63;;;;;;;18.70;51.78;98534.84;4170957;28;20239;-52
2022/07/28 07:32:27;;;;;;;1.52;0.80;;;;;;;18.92;51.58;98527.53;4171819;28;20209;-52
2022/07/28 07:34:29;;;;;;;1.00;0.90;;;;;;;19.05;51.21;98531.50;4190127;28;20207;-52
2022/07/28 07:36:31;;;;;;;0.85;0.85;;;;;;;19.06;49.88;98533.13;4177991;28;20206;-52
2022/07/28 07:38:33;;;;;;;2.63;0.98;;;;;;;19.00;50.14;98532.41;4170125;28;20262;-52
2022/07/28 07:40:35;;;;;;;3.75;1.45;;;;;;;19.04;49.96;98527.06;4171631;28;20266;-52
2022/07/28 07:42:37;;;;;;;3.42;2.00;;;;;;;19.17;50.03;98534.59;4172044;28;20616;-52
2022/07/28 07:44:39;;;;;;;1.42;1.02;;;;;;;19.22;49.99;98538.13;4161981;28;20664;-53
2022/07/28 07:46:43;;;;;;;2.30;0.98;;;;;;;19.39;50.20;98537.53;4173983;28;20956;-53
2022/07/28 07:48:46;;;;;;;1.50;0.82;;;;;;;19.38;49.67;98535.91;4171503;28;20671;-53
2022/07/28 07:50:48;;;;;;;1.40;0.75;;;;;;;19.42;49.54;98536.91;4173287;28;20225;-53
2022/07/28 07:52:55;;;;;;;1.48;0.90;;;;;;;19.31;49.93;98533.50;4188137;28;20207;-52
2022/07/28 07:54:56;;;;;;;3.03;1.90;;;;;;;19.07;50.34;98523.66;4172080;28;20209;-52
2022/07/28 07:56:58;;;;;;;2.88;1.02;;;;;;;19.23;50.01;98519.50;4179312;28;20270;-52
2022/07/28 07:59:03;;;;;;;2.45;1.13;;;;;;;19.40;49.64;98525.31;4172757;28;20200;-53
2022/07/28 08:01:05;;;;;;;2.83;1.02;;;;;;;19.97;49.31;98527.50;4171304;28;20223;-52
2022/07/28 08:03:07;;;;;;;3.63;0.70;;;;;;;20.34;48.77;98524.44;4176369;28;20915;-52
2022/07/28 08:05:12;;;;;;;1.52;0.80;;;;;;;20.16;48.22;98519.84;4185822;28;20265;-53
2022/07/28 08:07:15;;;;;;;1.17;0.80;;;;;;;20.15;48.29;98529.31;4170340;28;20203;-53
2022/07/28 08:09:17;;;;;;;2.30;0.70;;;;;;;20.19;47.85;98522.81;4159326;28;20212;-52
2022/07/28 08:11:19;;;;;;;3.75;1.20;;;;;;;20.32;48.38;98523.94;4174651;28;20679;-52
2022/07/28 08:13:21;;;;;;;5.10;0.85;;;;;;;20.38;47.85;98531.03;4174428;28;20227;-53
2022/07/28 08:15:23;;;;;;;1.33;1.15;;;;;;;20.42;47.85;98523.69;4171175;28;20211;-53
2022/07/28 08:17:25;;;;;;;2.70;1.00;;;;;;;20.63;47.71;98524.88;4164271;28;20224;-52
2022/07/28 08:19:27;;;;;;;1.98;0.77;;;;;;;20.63;47.66;98524.88;4173754;28;20234;-53
2022/07/28 08:21:29;;;;;;;6.05;0.88;;;;;;;20.74;47.93;98521.53;4172593;28;20277;-53
2022/07/28 08:23:30;;;;;;;2.40;0.90;;;;;;;20.76;47.51;98518.44;4179382;28;20820;-52
2022/07/28 08:25:36;;;;;;;3.00;1.20;;;;;;;20.78;47.81;98516.16;4179218;28;20621;-53
2022/07/28 08:27:38;;;;;;;1.50;0.90;;;;;;;21.27;47.88;98507.66;4172448;28;20214;-52
2022/07/28 08:29:40;;;;;;;2.25;1.33;;;;;;;21.54;46.15;98513.88;4161531;28;20207;-52
2022/07/28 08:31:41;;;;;;;1.50;0.82;;;;;;;22.13;nan;98509.66;4179092;28;20234;-53
2022/07/28 08:33:43;;;;;;;1.48;0.70;;;;;;;22.10;45.28;98501.97;4171641;28;20454;-52
2022/07/28 08:35:54;;;;;;;1.95;0.70;;;;;;;22.17;45.70;98510.69;4171703;28;20209;-52
2022/07/28 08:37:59;;;;;;;2.70;0.90;;;;;;;22.50;45.26;98509.13;4191459;28;20248;-53
2022/07/28 08:40:03;;;;;;;2.42;1.23;;;;;;;22.99;44.18;98505.78;4176844;28;20211;-53
2022/07/28 08:42:06;;;;;;;1.60;0.80;;;;;;;23.19;43.35;98502.34;4191067;28;20219;-52
2022/07/28 08:44:09;;;;;;;11.05;1.75;;;;;;;22.98;44.46;98515.31;4178443;28;20231;-53
2022/07/28 08:46:12;;;;;;;3.40;1.67;;;;;;;22.98;44.54;98515.31;4162354;28;20208;-52
2022/07/28 08:48:15;;;;;;;3.10;0.90;;;;;;;22.97;44.36;98513.69;4176318;28;20203;-52
2022/07/28 08:50:21;;;;;;;2.22;1.00;;;;;;;22.73;44.33;98503.03;4172399;28;20195;-53
2022/07/28 08:52:24;;;;;;;2.05;0.98;;;;;;;22.76;45.05;98507.16;4184084;28;21250;-53
2022/07/28 08:54:27;;;;;;;2.25;0.70;;;;;;;22.91;44.89;98509.44;4158909;28;20480;-55
2022/07/28 08:56:30;;;;;;;1.15;0.77;;;;;;;22.40;44.97;98503.81;4158359;28;20219;-53
2022/07/28 08:58:33;;;;;;;4.45;1.35;;;;;;;22.84;45.59;98514.69;4158313;28;20215;-52
2022/07/28 09:00:35;;;;;;;2.35;0.82;;;;;;;22.86;44.52;98512.38;4166767;28;20219;-54
2022/07/28 09:02:40;;;;;;;3.72;0.70;;;;;;;22.95;44.83;98502.84;4169501;28;20211;-52
2022/07/28 09:04:44;;;;;;;1.23;0.70;;;;;;;23.51;44.75;98504.56;4185561;28;21033;-51
2022/07/28 09:06:47;;;;;;;1.73;1.08;;;;;;;23.76;44.34;98495.25;4170928;28;20909;-52
2022/07/28 09:08:48;;;;;;;4.57;1.60;;;;;;;23.67;44.05;98511.22;4171544;28;20253;-52
2022/07/28 09:10:50;;;;;;;2.35;1.00;;;;;;;23.73;43.69;98504.28;4171781;28;20309;-54
2022/07/28 09:12:52;;;;;;;0.95;0.75;;;;;;;23.38;43.81;98497.19;4170302;28;20231;-54
2022/07/28 09:15:05;;;;;;;1.70;0.90;;;;;;;23.28;44.41;98503.97;4153017;28;20208;-51
2022/07/28 09:17:16;;;;;;;3.97;0.80;;;;;;;23.27;44.68;98495.91;4163083;28;20232;-50
2022/07/28 09:19:18;;;;;;;2.30;1.27;;;;;;;23.57;44.63;98506.00;4171272;28;20224;-51
2022/07/28 09:21:20;;;;;;;4.10;1.02;;;;;;;23.63;44.90;98493.50;4172264;28;20317;-50
2022/07/28 09:23:21;;;;;;;5.82;1.50;;;;;;;23.76;44.47;98492.47;4160770;28;20200;-51
2022/07/28 09:25:43;;;;;;;4.28;1.27;;;;;;;23.88;44.11;98486.97;4171483;28;20267;-51
2022/07/28 09:27:45;;;;;;;4.13;1.20;;;;;;;23.88;44.42;98489.78;4173391;28;20206;-51
2022/07/28 09:29:57;;;;;;;3.78;1.20;;;;;;;23.97;44.30;98476.59;4187615;28;20218;-52
2022/07/28 09:31:59;;;;;;;2.05;1.23;;;;;;;24.15;44.43;98485.34;4173573;28;20236;-52
2022/07/28 09:34:03;;;;;;;2.53;1.30;;;;;;;24.22;43.88;98485.63;4171882;28;20212;-53
2022/07/28 09:36:12;;;;;;;1.33;1.08;;;;;;;24.29;43.98;98491.50;4177935;28;20203;-53
2022/07/28 09:38:15;;;;;;;3.38;1.75;;;;;;;23.87;44.33;98471.38;4171620;28;20195;-51
2022/07/28 09:40:17;;;;;;;5.20;1.75;;;;;;;24.02;44.27;98480.84;4187394;28;20643;-51
2022/07/28 09:42:23;;;;;;;1.80;1.50;;;;;;;24.05;43.87;98480.13;4170846;28;20233;-51
2022/07/28 09:44:26;;;;;;;2.17;1.10;;;;;;;24.30;44.09;98481.13;4169522;28;20682;-51
2022/07/28 09:46:29;;;;;;;2.22;1.40;;;;;;;24.63;44.34;98479.25;4187130;28;20211;-53
2022/07/28 09:48:31;;;;;;;11.32;1.95;;;;;;;24.76;43.48;98484.59;4173989;28;20282;-51
2022/07/28 09:50:33;;;;;;;2.75;1.50;;;;;;;24.37;43.60;98473.84;4179364;28;20259;-51